createdAt,value
2019-05-25T00:01:37.502Z,67.72
2019-05-25T00:04:06.106Z,68.00
2019-05-25T00:06:34.866Z,67.74
2019-05-25T00:09:05.010Z,67.69
2019-05-25T00:11:33.732Z,68.57
2019-05-25T00:14:02.463Z,68.57
2019-05-25T00:16:31.182Z,68.38
2019-05-25T00:18:59.760Z,68.34
2019-05-25T00:21:28.478Z,68.58
2019-05-25T00:24:11.136Z,68.46
2019-05-25T00:26:27.503Z,68.72
2019-05-25T00:28:56.035Z,68.52
2019-05-25T00:31:24.763Z,68.67
2019-05-25T00:33:53.401Z,68.68
2019-05-25T00:36:22.147Z,68.67
2019-05-25T00:38:50.774Z,69.29
2019-05-25T00:41:19.212Z,68.97
2019-05-25T00:43:47.906Z,69.49
2019-05-25T00:46:16.345Z,70.08
2019-05-25T00:48:45.047Z,70.15
2019-05-25T00:51:13.589Z,70.17
2019-05-25T00:53:42.157Z,71.03
2019-05-25T00:56:10.649Z,71.22
2019-05-25T00:58:39.139Z,70.92
2019-05-25T01:01:07.729Z,71.34
2019-05-25T01:03:36.442Z,71.48
2019-05-25T01:06:05.185Z,71.07
2019-05-25T01:08:33.839Z,71.28
2019-05-25T01:11:02.455Z,71.32
2019-05-25T01:13:31.182Z,71.75
2019-05-25T01:16:00.338Z,71.54
2019-05-25T01:18:28.827Z,71.79
2019-05-25T01:20:57.783Z,72.52
2019-05-25T01:23:26.227Z,72.44
2019-05-25T01:25:54.926Z,72.65
2019-05-25T01:28:23.639Z,73.35
2019-05-25T01:30:52.874Z,73.22
2019-05-25T01:33:21.572Z,73.40
2019-05-25T01:35:50.322Z,73.21
2019-05-25T01:38:18.932Z,73.06
2019-05-25T01:40:47.628Z,73.18
2019-05-25T01:43:16.354Z,73.39
2019-05-25T01:45:44.796Z,73.46
2019-05-25T01:48:13.478Z,73.59
2019-05-25T01:50:42.721Z,73.68
2019-05-25T01:53:11.689Z,73.85
2019-05-25T01:55:40.702Z,74.22
2019-05-25T01:58:09.372Z,73.94
2019-05-25T02:00:38.164Z,73.89
2019-05-25T02:03:06.745Z,74.10
2019-05-25T02:05:35.434Z,74.45
2019-05-25T02:08:04.520Z,74.12
2019-05-25T02:10:33.208Z,74.25
2019-05-25T02:13:01.660Z,74.40
2019-05-25T02:15:30.175Z,74.25
2019-05-25T02:17:58.818Z,74.38
2019-05-25T02:20:27.321Z,74.43
2019-05-25T02:22:56.020Z,74.67
2019-05-25T02:25:24.629Z,74.72
2019-05-25T02:27:53.262Z,74.52
2019-05-25T02:30:24.810Z,74.40
2019-05-25T02:32:53.407Z,74.65
2019-05-25T02:35:25.395Z,74.71
2019-05-25T02:37:53.921Z,74.62
2019-05-25T02:40:22.721Z,74.49
2019-05-25T02:42:51.216Z,74.60
2019-05-25T02:45:19.858Z,74.57
2019-05-25T02:47:48.457Z,74.90
2019-05-25T02:50:17.104Z,74.51
2019-05-25T02:52:45.696Z,74.69
2019-05-25T02:55:14.700Z,74.70
2019-05-25T02:57:43.380Z,75.15
2019-05-25T03:00:12.954Z,75.07
2019-05-25T03:02:41.641Z,75.29
2019-05-25T03:05:12.589Z,75.44
2019-05-25T03:07:43.496Z,75.24
2019-05-25T03:10:13.210Z,75.31
2019-05-25T03:12:41.703Z,75.29
2019-05-25T03:15:10.406Z,75.39
2019-05-25T03:17:39.013Z,75.37
2019-05-25T03:20:07.986Z,75.09
2019-05-25T03:22:36.695Z,75.36
2019-05-25T03:25:08.628Z,75.22
2019-05-25T03:27:37.161Z,75.36
2019-05-25T03:30:07.783Z,75.25
2019-05-25T03:32:36.296Z,75.38
2019-05-25T03:35:07.216Z,74.94
2019-05-25T03:37:35.833Z,75.17
2019-05-25T03:40:07.643Z,75.22
2019-05-25T03:42:36.329Z,75.32
2019-05-25T03:45:07.242Z,75.43
2019-05-25T03:47:35.667Z,75.50
2019-05-25T03:50:05.177Z,75.38
2019-05-25T03:52:33.840Z,74.90
2019-05-25T03:55:02.499Z,74.95
2019-05-25T03:57:31.160Z,75.08
2019-05-25T03:59:59.871Z,74.85
2019-05-25T04:02:28.639Z,74.81
2019-05-25T04:04:57.243Z,74.77
2019-05-25T04:07:25.921Z,74.52
2019-05-25T04:09:54.631Z,74.73
2019-05-25T04:12:23.263Z,74.76
2019-05-25T04:14:51.706Z,74.61
2019-05-25T04:17:20.368Z,75.10
2019-05-25T04:19:49.018Z,75.05
2019-05-25T04:22:17.739Z,74.65
2019-05-25T04:24:46.390Z,74.76
2019-05-25T04:27:15.122Z,74.59
2019-05-25T04:29:43.747Z,74.48
2019-05-25T04:32:12.245Z,74.50
2019-05-25T04:34:40.819Z,74.50
2019-05-25T04:37:09.337Z,74.87
2019-05-25T04:39:37.896Z,75.12
2019-05-25T04:42:06.602Z,75.07
2019-05-25T04:44:35.261Z,75.21
2019-05-25T04:47:04.062Z,75.23
2019-05-25T04:49:32.511Z,74.59
2019-05-25T04:52:01.146Z,74.45
2019-05-25T04:54:29.705Z,74.62
2019-05-25T04:56:58.384Z,74.73
2019-05-25T04:59:26.879Z,74.10
2019-05-25T05:01:55.329Z,74.46
2019-05-25T05:04:23.852Z,74.52
2019-05-25T05:06:52.586Z,74.53
2019-05-25T05:09:21.222Z,74.40
2019-05-25T05:11:49.677Z,74.28
2019-05-25T05:14:18.311Z,74.17
2019-05-25T05:16:46.954Z,74.29
2019-05-25T05:19:15.685Z,74.12
2019-05-25T05:21:44.318Z,74.08
2019-05-25T05:24:13.279Z,74.17
2019-05-25T05:26:54.563Z,74.06
2019-05-25T05:29:12.033Z,74.12
2019-05-25T05:31:40.737Z,74.76
2019-05-25T05:34:09.413Z,74.38
2019-05-25T05:36:38.659Z,73.97
2019-05-25T05:39:09.100Z,74.12
2019-05-25T05:41:40.301Z,74.45
2019-05-25T05:44:09.005Z,74.84
2019-05-25T05:46:38.818Z,74.99
2019-05-25T05:49:10.274Z,74.98
2019-05-25T05:51:39.415Z,75.24
2019-05-25T05:54:08.049Z,75.36
2019-05-25T05:56:36.723Z,75.58
2019-05-25T05:59:05.366Z,75.82
2019-05-25T06:01:34.097Z,75.16
2019-05-25T06:04:02.784Z,75.47
2019-05-25T06:06:31.495Z,75.24
2019-05-25T06:09:00.165Z,75.12
2019-05-25T06:11:28.828Z,75.09
2019-05-25T06:13:57.506Z,74.96
2019-05-25T06:16:26.159Z,74.05
2019-05-25T06:18:54.696Z,73.67
2019-05-25T06:21:23.225Z,73.92
2019-05-25T06:23:51.720Z,72.96
2019-05-25T06:26:20.282Z,71.97
2019-05-25T06:28:48.788Z,72.56
2019-05-25T06:31:17.352Z,72.42
2019-05-25T06:33:46.084Z,70.67
2019-05-25T06:36:14.732Z,71.18
2019-05-25T06:38:43.218Z,71.16
2019-05-25T06:41:11.784Z,70.51
2019-05-25T06:43:40.286Z,70.51
2019-05-25T06:46:08.852Z,69.65
2019-05-25T06:48:37.364Z,69.77
2019-05-25T06:51:05.945Z,70.37
2019-05-25T06:53:34.594Z,70.52
2019-05-25T06:56:03.171Z,71.37
2019-05-25T06:58:31.671Z,70.22
2019-05-25T07:01:00.391Z,69.67
2019-05-25T07:03:28.861Z,69.18
2019-05-25T07:05:57.543Z,70.19
2019-05-25T07:08:26.135Z,70.09
2019-05-25T07:10:54.852Z,70.15
2019-05-25T07:13:23.480Z,70.10
2019-05-25T07:15:52.217Z,69.90
2019-05-25T07:18:20.836Z,69.35
2019-05-25T07:20:49.331Z,68.23
2019-05-25T07:23:17.916Z,67.85
2019-05-25T07:25:46.662Z,67.69
2019-05-25T07:28:15.389Z,67.12
2019-05-25T07:30:46.608Z,65.74
2019-05-25T07:33:14.305Z,65.84
2019-05-25T07:35:42.955Z,66.60
2019-05-25T07:38:11.621Z,67.73
2019-05-25T07:40:40.248Z,67.73
2019-05-25T07:43:08.966Z,68.58
2019-05-25T07:45:37.688Z,69.32
2019-05-25T07:48:06.330Z,68.62
2019-05-25T07:50:34.868Z,67.27
2019-05-25T07:53:03.421Z,66.59
2019-05-25T07:55:32.090Z,66.46
2019-05-25T07:58:15.908Z,66.82
2019-05-25T08:00:31.058Z,66.95
2019-05-25T08:02:59.656Z,66.99
2019-05-25T08:05:28.213Z,67.36
2019-05-25T08:07:56.742Z,67.50
2019-05-25T08:10:25.312Z,66.96
2019-05-25T08:12:53.785Z,67.25
2019-05-25T08:15:22.394Z,66.44
2019-05-25T08:17:52.380Z,66.77
2019-05-25T08:20:34.621Z,66.60
2019-05-25T08:22:58.669Z,66.52
2019-05-25T08:25:27.390Z,66.89
2019-05-25T08:27:56.037Z,67.10
2019-05-25T08:30:24.643Z,67.28
2019-05-25T08:32:53.136Z,68.31
2019-05-25T08:35:21.779Z,68.69
2019-05-25T08:37:50.259Z,67.70
2019-05-25T08:40:18.907Z,67.66
2019-05-25T08:42:47.567Z,67.09
2019-05-25T08:45:18.066Z,68.35
2019-05-25T08:47:46.534Z,67.50
2019-05-25T08:50:15.255Z,67.40
2019-05-25T08:52:43.852Z,67.62
2019-05-25T08:55:12.629Z,68.41
2019-05-25T08:57:41.069Z,67.75
2019-05-25T09:00:10.833Z,67.36
2019-05-25T09:02:39.542Z,67.00
2019-05-25T09:05:10.443Z,67.99
2019-05-25T09:07:39.889Z,67.39
2019-05-25T09:10:09.939Z,67.82
2019-05-25T09:12:38.525Z,68.53
2019-05-25T09:15:08.256Z,69.59
2019-05-25T09:17:36.880Z,69.97
2019-05-25T09:20:10.463Z,69.52
2019-05-25T09:22:39.094Z,69.79
2019-05-25T09:25:08.335Z,69.67
2019-05-25T09:27:36.918Z,69.26
2019-05-25T09:30:07.299Z,68.43
2019-05-25T09:32:35.851Z,70.28
2019-05-25T09:35:06.604Z,69.15
2019-05-25T09:37:35.483Z,69.16
2019-05-25T09:40:05.167Z,69.58
2019-05-25T09:42:33.866Z,68.63
2019-05-25T09:45:02.504Z,69.21
2019-05-25T09:47:31.214Z,68.36
2019-05-25T09:49:59.871Z,68.68
2019-05-25T09:52:28.371Z,69.15
2019-05-25T09:54:56.936Z,69.21
2019-05-25T09:57:25.657Z,69.06
2019-05-25T09:59:54.306Z,69.14
2019-05-25T10:02:23.099Z,67.24
2019-05-25T10:04:51.663Z,67.06
2019-05-25T10:07:20.178Z,67.17
2019-05-25T10:09:48.653Z,66.76
2019-05-25T10:12:17.127Z,66.86
2019-05-25T10:14:45.909Z,66.32
2019-05-25T10:17:14.502Z,66.81
2019-05-25T10:19:43.241Z,67.71
2019-05-25T10:22:11.871Z,67.61
2019-05-25T10:24:40.668Z,67.68
2019-05-25T10:27:09.239Z,68.30
2019-05-25T10:29:37.956Z,67.71
2019-05-25T10:32:06.678Z,68.17
2019-05-25T10:34:35.360Z,67.97
2019-05-25T10:37:04.044Z,68.53
2019-05-25T10:39:32.653Z,67.89
2019-05-25T10:42:01.146Z,67.29
2019-05-25T10:44:29.723Z,66.70
2019-05-25T10:46:58.204Z,65.86
2019-05-25T10:49:26.788Z,66.27
2019-05-25T10:51:55.347Z,65.98
2019-05-25T10:54:23.796Z,66.82
2019-05-25T10:56:52.408Z,65.56
2019-05-25T10:59:20.922Z,65.56
2019-05-25T11:01:49.442Z,65.22
2019-05-25T11:04:18.078Z,64.20
2019-05-25T11:06:46.710Z,64.38
2019-05-25T11:09:15.395Z,65.46
2019-05-25T11:11:44.060Z,65.70
2019-05-25T11:14:12.770Z,67.28
2019-05-25T11:16:41.429Z,64.84
2019-05-25T11:19:10.163Z,64.73
2019-05-25T11:21:38.779Z,65.82
2019-05-25T11:24:07.903Z,65.80
2019-05-25T11:26:37.184Z,65.90
2019-05-25T11:29:05.811Z,66.36
2019-05-25T11:31:34.859Z,65.58
2019-05-25T11:34:03.521Z,66.53
2019-05-25T11:36:32.177Z,65.14
2019-05-25T11:39:00.942Z,66.36
2019-05-25T11:41:29.620Z,64.61
2019-05-25T11:43:58.194Z,64.40
2019-05-25T11:46:26.923Z,64.07
2019-05-25T11:48:55.560Z,62.79
2019-05-25T11:51:24.283Z,63.34
2019-05-25T11:53:52.730Z,63.02
2019-05-25T11:56:21.419Z,62.75
2019-05-25T11:58:49.997Z,62.75
2019-05-25T12:01:18.675Z,61.14
2019-05-25T12:03:47.174Z,62.17
2019-05-25T12:06:15.826Z,62.07
2019-05-25T12:08:44.520Z,61.90
2019-05-25T12:11:13.122Z,61.86
2019-05-25T12:13:41.861Z,62.11
2019-05-25T12:16:10.665Z,62.71
2019-05-25T12:18:39.290Z,64.54
2019-05-25T12:21:07.863Z,63.66
2019-05-25T12:23:36.368Z,60.31
2019-05-25T12:26:05.063Z,59.88
2019-05-25T12:28:33.661Z,61.22
2019-05-25T12:31:02.310Z,60.61
2019-05-25T12:33:31.034Z,58.22
2019-05-25T12:35:59.750Z,59.82
2019-05-25T12:38:28.361Z,59.89
2019-05-25T12:40:57.083Z,59.63
2019-05-25T12:43:25.791Z,59.63
2019-05-25T12:45:54.473Z,59.47
2019-05-25T12:48:23.106Z,59.00
2019-05-25T12:50:51.827Z,59.10
2019-05-25T12:53:20.473Z,58.80
2019-05-25T12:55:49.313Z,61.36
2019-05-25T12:58:17.846Z,60.96
2019-05-25T13:00:55.783Z,59.41
2019-05-25T13:03:16.789Z,58.16
2019-05-25T13:05:45.516Z,58.75
2019-05-25T13:08:14.170Z,59.35
2019-05-25T13:10:42.850Z,59.15
2019-05-25T13:13:11.611Z,58.86
2019-05-25T13:15:40.182Z,58.30
2019-05-25T13:18:08.916Z,59.03
2019-05-25T13:20:37.554Z,59.15
2019-05-25T13:23:06.314Z,58.60
2019-05-25T13:25:34.927Z,58.48
2019-05-25T13:28:03.616Z,59.20
2019-05-25T13:30:32.096Z,58.72
2019-05-25T13:33:00.675Z,57.05
2019-05-25T13:35:29.160Z,57.27
2019-05-25T13:37:57.742Z,56.42
2019-05-25T13:40:26.539Z,57.34
2019-05-25T13:42:55.111Z,57.01
2019-05-25T13:45:23.845Z,57.01
2019-05-25T13:47:52.492Z,57.00
2019-05-25T13:50:21.444Z,57.87
2019-05-25T13:52:49.892Z,58.04
2019-05-25T13:55:18.446Z,58.16
2019-05-25T13:57:47.060Z,60.75
2019-05-25T14:00:15.887Z,59.14
2019-05-25T14:02:44.400Z,57.78
2019-05-25T14:05:14.023Z,57.56
2019-05-25T14:07:42.590Z,59.08
2019-05-25T14:10:11.487Z,60.12
2019-05-25T14:12:39.960Z,59.31
2019-05-25T14:15:09.456Z,58.60
2019-05-25T14:17:38.253Z,60.10
2019-05-25T14:20:07.920Z,58.91
2019-05-25T14:22:36.546Z,61.04
2019-05-25T14:25:07.431Z,61.35
2019-05-25T14:27:36.102Z,60.38
2019-05-25T14:30:06.207Z,60.95
2019-05-25T14:32:34.699Z,59.91
2019-05-25T14:35:03.506Z,56.83
2019-05-25T14:37:32.070Z,57.27
2019-05-25T14:40:00.804Z,57.40
2019-05-25T14:42:29.466Z,58.42
2019-05-25T14:44:58.107Z,59.99
2019-05-25T14:47:26.840Z,59.24
2019-05-25T14:49:55.459Z,60.98
2019-05-25T14:52:23.934Z,59.97
2019-05-25T14:54:52.532Z,59.77
2019-05-25T14:57:21.652Z,60.95
2019-05-25T14:59:51.890Z,61.01
2019-05-25T15:02:20.469Z,59.50
2019-05-25T15:04:49.134Z,62.03
2019-05-25T15:07:17.863Z,63.42
2019-05-25T15:09:46.509Z,63.18
2019-05-25T15:12:15.255Z,62.81
2019-05-25T15:14:43.870Z,63.85
2019-05-25T15:17:12.593Z,63.98
2019-05-25T15:19:41.236Z,64.97
2019-05-25T15:22:10.389Z,63.76
2019-05-25T15:24:39.559Z,64.26
2019-05-25T15:27:08.212Z,64.80
2019-05-25T15:29:36.952Z,65.11
2019-05-25T15:32:19.049Z,65.34
2019-05-25T15:34:36.150Z,64.75
2019-05-25T15:37:05.050Z,65.31
2019-05-25T15:39:33.902Z,64.61
2019-05-25T15:42:02.852Z,64.34
2019-05-25T15:44:31.519Z,60.45
2019-05-25T15:47:00.154Z,60.55
2019-05-25T15:49:33.339Z,61.36
2019-05-25T15:51:59.728Z,61.51
2019-05-25T15:54:28.409Z,61.36
2019-05-25T15:56:56.864Z,61.84
2019-05-25T15:59:25.468Z,62.27
2019-05-25T16:01:54.116Z,62.84
2019-05-25T16:04:22.627Z,64.68
2019-05-25T16:06:51.317Z,65.90
2019-05-25T16:09:19.935Z,66.55
2019-05-25T16:11:48.622Z,65.55
2019-05-25T16:14:17.256Z,65.54
2019-05-25T16:16:45.954Z,66.12
2019-05-25T16:19:14.387Z,67.02
2019-05-25T16:21:43.016Z,66.96
2019-05-25T16:24:13.011Z,66.21
2019-05-25T16:26:45.908Z,65.25
2019-05-25T16:29:11.811Z,65.06
2019-05-25T16:31:40.543Z,64.04
2019-05-25T16:34:08.988Z,64.43
2019-05-25T16:36:37.563Z,64.61
2019-05-25T16:39:08.194Z,65.10
2019-05-25T16:41:36.782Z,64.41
2019-05-25T16:44:05.596Z,64.25
2019-05-25T16:46:34.145Z,63.99
2019-05-25T16:49:02.640Z,63.49
2019-05-25T16:51:31.218Z,64.50
2019-05-25T16:53:59.945Z,64.29
2019-05-25T16:56:28.458Z,63.74
2019-05-25T16:58:56.951Z,63.55
2019-05-25T17:01:25.386Z,63.51
2019-05-25T17:03:54.093Z,63.68
2019-05-25T17:06:22.603Z,63.11
2019-05-25T17:08:51.141Z,62.74
2019-05-25T17:11:19.815Z,63.56
2019-05-25T17:13:48.503Z,63.71
2019-05-25T17:16:16.940Z,62.81
2019-05-25T17:18:45.575Z,61.82
2019-05-25T17:21:14.020Z,62.36
2019-05-25T17:23:42.704Z,62.73
2019-05-25T17:26:11.158Z,63.27
2019-05-25T17:28:39.707Z,63.39
2019-05-25T17:31:08.146Z,63.53
2019-05-25T17:33:45.770Z,63.42
2019-05-25T17:36:07.321Z,62.79
2019-05-25T17:38:35.976Z,63.26
2019-05-25T17:41:04.591Z,63.79
2019-05-25T17:43:33.069Z,64.42
2019-05-25T17:46:01.509Z,64.85
2019-05-25T17:48:30.070Z,64.42
2019-05-25T17:50:58.557Z,64.47
2019-05-25T17:53:27.131Z,64.18
2019-05-25T17:55:55.623Z,65.22
2019-05-25T17:58:24.153Z,65.40
2019-05-25T18:00:52.653Z,65.89
2019-05-25T18:03:21.238Z,64.16
2019-05-25T18:05:49.715Z,63.76
2019-05-25T18:08:18.410Z,63.70
2019-05-25T18:10:53.321Z,64.79
2019-05-25T18:13:17.728Z,64.33
2019-05-25T18:15:46.288Z,64.55
2019-05-25T18:18:14.962Z,65.38
2019-05-25T18:20:43.606Z,65.94
2019-05-25T18:23:12.103Z,65.78
2019-05-25T18:25:40.736Z,65.63
2019-05-25T18:28:09.538Z,64.78
2019-05-25T18:30:38.096Z,66.74
2019-05-25T18:33:06.826Z,66.36
2019-05-25T18:35:35.461Z,67.16
2019-05-25T18:38:04.470Z,67.65
2019-05-25T18:40:33.130Z,66.62
2019-05-25T18:43:01.777Z,67.72
2019-05-25T18:45:30.568Z,68.59
2019-05-25T18:47:59.142Z,68.30
2019-05-25T18:50:27.951Z,67.33
2019-05-25T18:52:56.521Z,68.04
2019-05-25T18:55:25.298Z,68.13
2019-05-25T18:57:53.742Z,69.17
2019-05-25T19:00:23.889Z,68.17
2019-05-25T19:02:52.469Z,68.12
2019-05-25T19:05:21.109Z,67.45
2019-05-25T19:07:49.627Z,67.40
2019-05-25T19:10:19.765Z,66.96
2019-05-25T19:12:48.717Z,67.45
2019-05-25T19:15:19.016Z,69.19
2019-05-25T19:17:47.703Z,69.32
2019-05-25T19:20:20.972Z,71.02
2019-05-25T19:22:47.570Z,69.83
2019-05-25T19:25:16.828Z,70.22
2019-05-25T19:27:45.543Z,70.26
2019-05-25T19:30:16.325Z,71.63
2019-05-25T19:32:45.023Z,70.27
2019-05-25T19:35:13.610Z,69.74
2019-05-25T19:37:42.713Z,68.95
2019-05-25T19:40:12.057Z,67.27
2019-05-25T19:42:40.746Z,66.91
2019-05-25T19:45:10.354Z,67.58
2019-05-25T19:47:39.036Z,67.58
2019-05-25T19:50:08.652Z,67.64
2019-05-25T19:52:37.344Z,68.49
2019-05-25T19:55:07.512Z,68.57
2019-05-25T19:57:36.238Z,68.10
2019-05-25T20:00:09.255Z,68.23
2019-05-25T20:02:39.576Z,67.71
2019-05-25T20:05:16.286Z,68.95
2019-05-25T20:07:39.254Z,69.85
2019-05-25T20:10:09.178Z,71.84
2019-05-25T20:12:37.839Z,71.12
2019-05-25T20:15:08.033Z,71.12
2019-05-25T20:17:37.300Z,71.84
2019-05-25T20:20:06.977Z,72.22
2019-05-25T20:22:35.672Z,71.41
2019-05-25T20:25:07.196Z,71.37
2019-05-25T20:27:35.812Z,72.29
2019-05-25T20:30:09.703Z,71.88
2019-05-25T20:32:38.478Z,71.55
2019-05-25T20:35:07.969Z,72.54
2019-05-25T20:37:36.789Z,72.73
2019-05-25T20:40:07.974Z,72.00
2019-05-25T20:42:36.907Z,72.26
2019-05-25T20:45:07.679Z,72.00
2019-05-25T20:47:36.441Z,72.82
2019-05-25T20:50:08.130Z,72.19
2019-05-25T20:52:36.826Z,73.74
2019-05-25T20:55:06.622Z,74.01
2019-05-25T20:57:35.079Z,73.81
2019-05-25T21:00:05.322Z,74.21
2019-05-25T21:02:34.018Z,74.56
2019-05-25T21:05:02.735Z,74.20
2019-05-25T21:07:31.341Z,74.10
2019-05-25T21:10:00.051Z,73.80
2019-05-25T21:12:28.722Z,72.97
2019-05-25T21:14:57.414Z,74.12
2019-05-25T21:17:26.078Z,74.27
2019-05-25T21:19:54.758Z,73.95
2019-05-25T21:22:23.564Z,72.72
2019-05-25T21:24:52.126Z,71.65
2019-05-25T21:27:20.735Z,70.94
2019-05-25T21:29:49.198Z,70.33
2019-05-25T21:32:17.923Z,70.28
2019-05-25T21:34:46.558Z,69.80
2019-05-25T21:37:15.282Z,69.61
2019-05-25T21:39:43.730Z,69.74
2019-05-25T21:42:12.351Z,69.46
2019-05-25T21:44:41.007Z,70.29
2019-05-25T21:47:09.482Z,71.43
2019-05-25T21:49:38.064Z,71.23
2019-05-25T21:52:06.817Z,70.88
2019-05-25T21:54:35.480Z,70.80
2019-05-25T21:57:04.186Z,69.98
2019-05-25T21:59:32.998Z,69.62
2019-05-25T22:02:01.497Z,69.92
2019-05-25T22:04:30.210Z,69.53
2019-05-25T22:06:58.921Z,69.42
2019-05-25T22:09:27.614Z,69.38
2019-05-25T22:11:56.241Z,69.40
2019-05-25T22:14:25.057Z,69.58
2019-05-25T22:16:53.599Z,69.67
2019-05-25T22:19:22.096Z,69.54
2019-05-25T22:21:50.663Z,69.68
2019-05-25T22:24:19.155Z,69.73
2019-05-25T22:26:47.741Z,69.89
2019-05-25T22:29:16.258Z,69.92
2019-05-25T22:31:44.844Z,70.07
2019-05-25T22:34:13.557Z,70.10
2019-05-25T22:36:42.197Z,70.30
2019-05-25T22:39:10.866Z,70.04
2019-05-25T22:41:39.568Z,70.21
2019-05-25T22:44:08.304Z,70.44
2019-05-25T22:46:36.959Z,70.40
2019-05-25T22:49:05.819Z,70.35
2019-05-25T22:51:34.284Z,70.42
2019-05-25T22:54:02.772Z,70.58
2019-05-25T22:56:31.348Z,70.51
2019-05-25T22:58:59.838Z,70.67
2019-05-25T23:01:28.431Z,70.71
2019-05-25T23:03:57.179Z,70.41
2019-05-25T23:06:25.889Z,70.52
2019-05-25T23:08:54.474Z,70.60
2019-05-25T23:11:23.206Z,70.58
2019-05-25T23:13:51.874Z,70.52
2019-05-25T23:16:20.559Z,70.69
2019-05-25T23:18:49.228Z,70.88
2019-05-25T23:21:17.942Z,71.20
2019-05-25T23:23:46.584Z,71.14
2019-05-25T23:26:15.151Z,70.84
2019-05-25T23:28:43.659Z,71.09
2019-05-25T23:31:12.144Z,70.90
2019-05-25T23:33:40.721Z,70.82
2019-05-25T23:36:09.447Z,70.79
2019-05-25T23:38:38.083Z,70.93
2019-05-25T23:41:06.597Z,71.00
2019-05-25T23:43:35.375Z,70.74
2019-05-25T23:46:03.957Z,70.66
2019-05-25T23:48:32.551Z,71.01
2019-05-25T23:51:01.213Z,71.24
2019-05-25T23:53:29.701Z,71.27
2019-05-25T23:55:58.274Z,71.52
2019-05-25T23:58:26.778Z,71.63
